createdAt,value
2022-10-05T00:02:19.414Z,89.50
2022-10-05T00:07:51.197Z,88.57
2022-10-05T00:13:24.762Z,88.95
2022-10-05T00:24:28.332Z,88.69
2022-10-05T00:30:01.908Z,88.99
2022-10-05T00:35:33.703Z,89.11
2022-10-05T00:46:39.277Z,89.58
2022-10-05T00:52:11.083Z,89.45
2022-10-05T00:57:43.014Z,89.64
2022-10-05T01:03:14.461Z,90.07
2022-10-05T01:08:46.441Z,90.14
2022-10-05T01:19:49.997Z,88.44
2022-10-05T01:25:21.726Z,89.45
2022-10-05T01:30:53.674Z,89.87
2022-10-05T01:36:25.361Z,89.79
2022-10-05T01:41:57.243Z,90.15
2022-10-05T01:47:28.855Z,90.26
2022-10-05T01:53:00.492Z,90.09
2022-10-05T01:58:32.546Z,90.15
2022-10-05T02:04:04.506Z,90.17
2022-10-05T02:09:38.483Z,90.10
2022-10-05T02:15:10.322Z,90.10
2022-10-05T02:20:42.260Z,90.03
2022-10-05T02:26:13.994Z,90.11
2022-10-05T02:31:45.739Z,89.74
2022-10-05T02:37:17.222Z,89.96
2022-10-05T02:45:10.471Z,91.33
2022-10-05T02:50:41.937Z,90.62
2022-10-05T02:56:13.707Z,90.30
2022-10-05T03:01:46.092Z,90.43
2022-10-05T03:12:49.268Z,90.02
2022-10-05T03:18:20.783Z,88.27
2022-10-05T03:29:24.050Z,88.05
2022-10-05T03:34:55.902Z,88.33
2022-10-05T03:40:27.644Z,88.60
2022-10-05T03:45:59.579Z,89.17
2022-10-05T03:51:31.236Z,89.45
2022-10-05T03:57:03.140Z,89.55
2022-10-05T04:02:35.396Z,89.97
2022-10-05T04:08:07.090Z,89.43
2022-10-05T04:13:38.874Z,89.51
2022-10-05T04:19:10.644Z,89.96
2022-10-05T04:24:42.524Z,90.18
2022-10-05T04:30:13.955Z,90.23
2022-10-05T04:35:45.451Z,90.26
2022-10-05T04:41:18.736Z,90.29
2022-10-05T04:57:55.510Z,90.67
2022-10-05T05:03:27.312Z,90.62
2022-10-05T05:09:01.205Z,89.25
2022-10-05T05:20:04.768Z,90.33
2022-10-05T05:25:36.444Z,90.24
2022-10-05T05:31:08.280Z,90.05
2022-10-05T05:42:11.616Z,90.20
2022-10-05T05:47:43.377Z,90.19
2022-10-05T05:53:14.555Z,90.28
2022-10-05T05:58:45.839Z,91.25
2022-10-05T06:04:17.527Z,89.22
2022-10-05T06:09:48.784Z,87.52
2022-10-05T06:15:20.198Z,83.71
2022-10-05T06:20:51.501Z,81.45
2022-10-05T06:26:22.838Z,79.94
2022-10-05T06:31:58.588Z,75.76
2022-10-05T06:37:25.782Z,76.81
2022-10-05T06:42:57.405Z,71.91
2022-10-05T06:48:28.987Z,70.06
2022-10-05T06:54:00.728Z,69.46
2022-10-05T06:59:31.829Z,64.78
2022-10-05T07:05:03.263Z,66.50
2022-10-05T07:10:34.712Z,61.62
2022-10-05T07:16:06.002Z,65.49
2022-10-05T07:21:37.610Z,63.15
2022-10-05T07:27:08.990Z,59.31
2022-10-05T07:32:40.386Z,56.11
2022-10-05T07:38:12.297Z,55.00
2022-10-05T07:49:15.705Z,57.40
2022-10-05T07:54:47.007Z,55.52
2022-10-05T08:00:18.390Z,53.80
2022-10-05T08:05:50.117Z,53.54
2022-10-05T08:11:21.506Z,53.53
2022-10-05T08:16:52.847Z,54.65
2022-10-05T08:22:24.088Z,54.62
2022-10-05T08:27:55.496Z,53.32
2022-10-05T08:33:26.810Z,52.38
2022-10-05T08:38:57.950Z,53.48
2022-10-05T08:44:29.555Z,53.31
2022-10-05T08:50:01.175Z,53.00
2022-10-05T08:55:32.521Z,52.15
2022-10-05T09:01:03.924Z,54.16
2022-10-05T09:06:35.049Z,56.35
2022-10-05T09:12:06.728Z,54.83
2022-10-05T09:17:39.454Z,56.23
2022-10-05T09:23:09.703Z,55.97
2022-10-05T09:28:41.416Z,56.00
2022-10-05T09:34:12.851Z,55.67
2022-10-05T09:39:44.214Z,55.15
2022-10-05T09:45:21.057Z,55.34
2022-10-05T09:50:47.236Z,55.47
2022-10-05T09:56:18.599Z,55.74
2022-10-05T10:04:10.817Z,53.53
2022-10-05T10:09:42.105Z,53.46
2022-10-05T10:20:44.951Z,53.54
2022-10-05T10:26:16.207Z,53.05
2022-10-05T10:31:47.766Z,54.52
2022-10-05T10:37:18.765Z,54.40
2022-10-05T10:42:50.357Z,54.28
2022-10-05T10:48:22.207Z,53.74
2022-10-05T10:53:53.922Z,54.35
2022-10-05T10:59:27.978Z,53.80
2022-10-05T11:04:57.184Z,54.33
2022-10-05T11:10:28.939Z,53.87
2022-10-05T11:16:00.856Z,54.20
2022-10-05T11:21:32.349Z,53.20
2022-10-05T11:32:34.947Z,52.50
2022-10-05T11:38:06.111Z,52.55
2022-10-05T11:43:37.383Z,52.50
2022-10-05T11:49:08.991Z,51.98
2022-10-05T11:55:05.971Z,52.10
2022-10-05T12:00:13.737Z,52.29
2022-10-05T12:05:45.058Z,51.71
2022-10-05T12:11:16.339Z,51.56
2022-10-05T12:16:47.634Z,51.92
2022-10-05T12:22:19.006Z,51.89
2022-10-05T12:27:50.276Z,51.30
2022-10-05T12:33:21.868Z,51.59
2022-10-05T12:38:53.423Z,51.80
2022-10-05T12:44:24.659Z,50.91
2022-10-05T12:49:56.016Z,51.31
2022-10-05T12:55:27.223Z,51.20
2022-10-05T13:00:58.815Z,50.96
2022-10-05T13:17:32.953Z,49.99
2022-10-05T13:23:04.286Z,49.88
2022-10-05T13:28:36.010Z,49.15
2022-10-05T13:34:07.351Z,48.89
2022-10-05T13:39:39.060Z,49.29
2022-10-05T13:45:11.195Z,49.43
2022-10-05T13:50:42.929Z,49.88
2022-10-05T13:56:14.668Z,49.58
2022-10-05T14:01:45.929Z,48.99
2022-10-05T14:07:17.418Z,49.13
2022-10-05T14:12:48.564Z,48.69
2022-10-05T14:18:19.984Z,48.21
2022-10-05T14:23:51.310Z,48.18
2022-10-05T14:29:22.539Z,49.18
2022-10-05T14:34:53.790Z,48.67
2022-10-05T14:40:25.072Z,48.51
2022-10-05T14:45:56.503Z,47.82
2022-10-05T14:51:28.330Z,48.51
2022-10-05T14:56:59.793Z,49.20
2022-10-05T15:02:31.496Z,49.93
2022-10-05T15:08:02.833Z,50.66
2022-10-05T15:13:34.365Z,51.14
2022-10-05T15:19:05.839Z,52.03
2022-10-05T15:30:06.829Z,53.34
2022-10-05T15:35:38.021Z,52.33
2022-10-05T15:41:09.422Z,51.48
2022-10-05T15:46:41.108Z,51.12
2022-10-05T15:52:12.709Z,51.29
2022-10-05T16:03:13.490Z,52.77
2022-10-05T16:08:45.053Z,53.54
2022-10-05T16:14:16.739Z,54.02
2022-10-05T16:19:47.965Z,54.81
2022-10-05T16:25:19.325Z,55.71
2022-10-05T16:30:50.958Z,55.45
2022-10-05T16:36:22.585Z,55.86
2022-10-05T16:41:54.294Z,56.44
2022-10-05T16:47:27.528Z,56.91
2022-10-05T16:58:27.026Z,57.72
2022-10-05T17:03:58.738Z,58.02
2022-10-05T17:09:30.154Z,58.53
2022-10-05T17:15:01.383Z,59.07
2022-10-05T17:20:32.775Z,59.02
2022-10-05T17:31:33.710Z,60.99
2022-10-05T17:37:05.064Z,61.97
2022-10-05T17:42:36.350Z,63.49
2022-10-05T17:48:07.730Z,64.29
2022-10-05T17:53:39.116Z,65.82
2022-10-05T18:04:39.973Z,64.69
2022-10-05T18:10:11.258Z,65.51
2022-10-05T18:21:12.197Z,66.28
2022-10-05T18:26:43.900Z,67.59
2022-10-05T18:32:15.279Z,67.88
2022-10-05T18:37:46.665Z,67.96
2022-10-05T18:43:18.477Z,68.07
2022-10-05T18:48:49.961Z,68.30
2022-10-05T18:54:21.904Z,68.75
2022-10-05T18:59:53.615Z,69.44
2022-10-05T19:05:52.328Z,70.37
2022-10-05T19:10:56.527Z,70.99
2022-10-05T19:16:28.042Z,71.23
2022-10-05T19:21:59.083Z,70.38
2022-10-05T19:27:30.597Z,71.85
2022-10-05T19:33:02.309Z,71.45
2022-10-05T19:38:33.808Z,71.90
2022-10-05T19:44:05.397Z,71.62
2022-10-05T19:49:37.140Z,72.29
2022-10-05T19:55:08.520Z,72.35
2022-10-05T20:00:40.247Z,72.68
2022-10-05T20:06:11.939Z,73.11
2022-10-05T20:11:43.265Z,72.98
2022-10-05T20:17:14.600Z,73.18
2022-10-05T20:22:46.004Z,73.75
2022-10-05T20:28:17.592Z,73.44
2022-10-05T20:44:49.178Z,73.96
2022-10-05T20:55:48.858Z,73.48
2022-10-05T21:01:23.410Z,72.83
2022-10-05T21:06:54.830Z,73.30
2022-10-05T21:17:55.551Z,73.41
2022-10-05T21:23:27.065Z,73.53
2022-10-05T21:28:59.713Z,72.81
2022-10-05T21:34:31.069Z,74.22
2022-10-05T21:40:02.325Z,74.06
2022-10-05T21:51:05.409Z,74.64
2022-10-05T21:56:36.744Z,74.64
2022-10-05T22:02:08.493Z,74.99
2022-10-05T22:07:39.772Z,73.79
2022-10-05T22:13:11.116Z,73.64
2022-10-05T22:18:42.488Z,74.10
2022-10-05T22:24:14.178Z,73.89
2022-10-05T22:29:45.439Z,73.71
2022-10-05T22:35:16.957Z,74.17
2022-10-05T22:40:48.618Z,74.40
2022-10-05T22:46:20.022Z,74.84
2022-10-05T22:51:51.164Z,74.67
2022-10-05T22:57:22.528Z,75.15
2022-10-05T23:02:53.973Z,75.13
2022-10-05T23:08:25.992Z,75.01
2022-10-05T23:13:57.557Z,76.12
2022-10-05T23:16:10.035Z,75.48
2022-10-05T23:21:41.526Z,75.45
2022-10-05T23:27:12.956Z,75.51
2022-10-05T23:32:44.399Z,75.89
2022-10-05T23:38:16.536Z,76.01
2022-10-05T23:43:48.054Z,76.84
2022-10-05T23:49:19.674Z,76.47
2022-10-05T23:54:51.545Z,76.91
